Hobbs, NM (88240)

2:27 AM MST on February 14, 2016 (GMT -0700)
NW Hobbs NM | | Change Station
CLOSE
Current Station
Personal Weather Station
Location: Hobbs, NM
Elevation: 3637 ft
Nearby Weather Stations

Elev 3637 ft 32.74 °N, 103.15 °W | Updated 5 seconds ago

Mostly Cloudy
Mostly Cloudy
45.6 °F
Feels Like 44 °F
N
4.0
Wind Variable Wind from WSW
Gusts 8.0 mph

Today
High -- | Low -- °F
--% Chance of Precip.
Yesterday
High -- | Low -- °F
Precip. -- in
Pressure 29.98 in
Visibility 10.0 miles
Clouds Clear
Windchill 44 °F
Dew Point 39 °F
Humidity 78%
Rainfall 0.00 in
Snow Depth Not available.
6:37 AM 5:36 PM
Waxing Crescent, 40% visible
METAR KHOB 140915Z AUTO 23006KT 10SM CLR 05/05 A2998 RMK AO2 TSNO
Pressure 29.98 in
Visibility 10.0 miles
Clouds Clear
Windchill 44 °F
Dew Point 39 °F
Humidity 78%
Rainfall 0.00 in
Snow Depth Not available.
6:37 AM 5:36 PM
Waxing Crescent, 40% visible
METAR KHOB 140915Z AUTO 23006KT 10SM CLR 05/05 A2998 RMK AO2 TSNO

10-Day Weather Forecast

Almanac

Astronomy

Feb. 14, 2016 Rise Set
Actual Time
Civil Twilight
Nautical Twilight
Astronomical Twilight
Moon
Length of Visible Light
Length of Day
Tomorrow will be .
, % of the Moon is Illuminated

Today's Extremes

State Highs State Lows

Community

WunderPhotos

Upload Photos

1,892,761 photos uploaded!

WunderBlog® & News

Nearby

Air Quality

  Air Quality AQ Index Pollutant
Not available.

Snow Depth

Station Depth Elevation

Earthquake Activity

City Distance Mag. Time & Date
Minimum magnitude displayed is 2.5.

Coastal Water Temperatures

Place Temperature

Stations

Nearby Weather Stations

Station Location Temp. Windchill Dew Point Humidity Wind Precip. Elev Updated Type
                   

Watches & Warnings

There are currently no watches in effect.